DLH111 LEPA-EDDF
Flight info
| Callsign | DLH111 |
|---|---|
| Flight time | N/A |
| Altitude | 32000 |
| Route | MEROS DCT LAPIT DCT CHELY DCT LUMAS DCT MAXIR DCT LUSOL DCT BODRU DCT OKTET DCT IRMAR/N0486F380 DCT KINES DCT VANAS DCT MOBLO DCT UBIMA DCT SOSAL/N0488F400 DCT KORED DCT BERSU N871 DITON/N0490F390 DCT LADOL/N0489F400 T163 EMPAX EMPAX5B |
| Aircraft | A35K/H-SDE2E3GHIJ3J4J5LM1ORWXY/LB1D1 |
Departure
| Time | 2026-05-07 14:42 |
|---|---|
| Airport | Palma de Mallorca Airport (LEPA) |
Arrival
| Time | N/A |
|---|---|
| Airport | Frankfurt Main Airport (EDDF) |
| Time | Latitude | Longitude | Altitude | Speed | Heading |
|---|---|---|---|---|---|
| 2026-05-07 14:36 | 39.54848 | 2.73868 | 39 ft | 0 kts | 270° |
| 2026-05-07 14:36 | 39.54848 | 2.73889 | 39 ft | 4 kts | 269° |
| 2026-05-07 14:36 | 39.54848 | 2.73923 | 39 ft | 4 kts | 260° |
| 2026-05-07 14:37 | 39.54857 | 2.73955 | 38 ft | 4 kts | 229° |
| 2026-05-07 14:37 | 39.54891 | 2.73966 | 39 ft | 1 kts | 150° |
| 2026-05-07 14:37 | 39.54893 | 2.73965 | 39 ft | 0 kts | 150° |
| 2026-05-07 14:39 | 39.54886 | 2.73970 | 39 ft | 6 kts | 151° |
| 2026-05-07 14:39 | 39.54781 | 2.73962 | 39 ft | 26 kts | 195° |
| 2026-05-07 14:40 | 39.54636 | 2.73804 | 40 ft | 29 kts | 238° |
| 2026-05-07 14:40 | 39.54530 | 2.73577 | 42 ft | 30 kts | 239° |
| 2026-05-07 14:40 | 39.54419 | 2.73341 | 43 ft | 31 kts | 239° |
| 2026-05-07 14:40 | 39.54308 | 2.73190 | 44 ft | 14 kts | 167° |
| 2026-05-07 14:41 | 39.54278 | 2.73272 | 44 ft | 11 kts | 99° |
| 2026-05-07 14:41 | 39.54270 | 2.73387 | 43 ft | 15 kts | 95° |
| 2026-05-07 14:41 | 39.54289 | 2.73529 | 41 ft | 18 kts | 60° |
| 2026-05-07 14:41 | 39.54367 | 2.73689 | 40 ft | 33 kts | 58° |
| 2026-05-07 14:42 | 39.54614 | 2.74210 | 40 ft | 105 kts | 58° |
| 2026-05-07 14:42 | 39.55114 | 2.75265 | 58 ft | 165 kts | 60° |
| 2026-05-07 14:42 | 39.55715 | 2.76552 | 815 ft | 162 kts | 61° |
| 2026-05-07 14:42 | 39.56289 | 2.77826 | 1513 ft | 177 kts | 62° |
| 2026-05-07 14:43 | 39.56960 | 2.79337 | 1806 ft | 208 kts | 62° |
| 2026-05-07 14:43 | 39.57697 | 2.80985 | 2599 ft | 210 kts | 62° |
| 2026-05-07 14:43 | 39.58423 | 2.82593 | 3562 ft | 205 kts | 62° |
| 2026-05-07 14:43 | 39.59184 | 2.84177 | 4315 ft | 210 kts | 60° |
| 2026-05-07 14:44 | 39.59973 | 2.85806 | 5011 ft | 215 kts | 60° |
| 2026-05-07 14:44 | 39.60768 | 2.87475 | 5764 ft | 219 kts | 61° |
| 2026-05-07 14:44 | 39.61569 | 2.89176 | 6524 ft | 223 kts | 61° |
| 2026-05-07 14:44 | 39.62384 | 2.90917 | 7263 ft | 229 kts | 60° |
| 2026-05-07 14:45 | 39.63207 | 2.92778 | 7777 ft | 246 kts | 63° |
| 2026-05-07 14:45 | 39.64065 | 2.94799 | 8298 ft | 267 kts | 63° |
| 2026-05-07 14:45 | 39.64987 | 2.96965 | 8988 ft | 279 kts | 62° |
| 2026-05-07 14:45 | 39.65941 | 2.99193 | 9839 ft | 286 kts | 62° |
| 2026-05-07 14:46 | 39.66930 | 3.01502 | 10472 ft | 303 kts | 62° |
| 2026-05-07 14:46 | 39.67997 | 3.03990 | 10863 ft | 327 kts | 62° |
| 2026-05-07 14:46 | 39.69143 | 3.06661 | 11231 ft | 350 kts | 62° |
| 2026-05-07 14:46 | 39.70363 | 3.09506 | 11647 ft | 369 kts | 62° |
| 2026-05-07 14:47 | 39.71635 | 3.12470 | 12308 ft | 379 kts | 62° |
| 2026-05-07 14:47 | 39.72926 | 3.15483 | 13110 ft | 385 kts | 62° |
| 2026-05-07 14:47 | 39.74236 | 3.18546 | 13882 ft | 391 kts | 62° |
| 2026-05-07 14:47 | 39.75568 | 3.21664 | 14635 ft | 398 kts | 62° |
| 2026-05-07 14:48 | 39.76934 | 3.24830 | 15417 ft | 404 kts | 60° |
| 2026-05-07 14:48 | 39.78577 | 3.27824 | 16130 ft | 411 kts | 51° |
| 2026-05-07 14:48 | 39.80441 | 3.30665 | 16834 ft | 416 kts | 49° |
| 2026-05-07 14:48 | 39.82361 | 3.33518 | 17516 ft | 422 kts | 49° |